createdAt,value
2019-05-14T00:00:57.545Z,0.10
2019-05-14T00:03:28.093Z,0.30
2019-05-14T00:05:58.388Z,1.02
2019-05-14T00:08:31.249Z,0.88
2019-05-14T00:11:01.387Z,0.60
2019-05-14T00:13:32.363Z,0.40
2019-05-14T00:16:02.932Z,0.20
2019-05-14T00:18:33.368Z,0.40
2019-05-14T00:21:03.686Z,0.20
2019-05-14T00:23:34.012Z,0.33
2019-05-14T00:26:04.344Z,0.20
2019-05-14T00:28:34.695Z,0.30
2019-05-14T00:31:05.067Z,0.30
2019-05-14T00:33:35.384Z,0.40
2019-05-14T00:36:05.696Z,0.53
2019-05-14T00:38:35.976Z,0.40
2019-05-14T00:41:06.283Z,0.30
2019-05-14T00:43:36.644Z,0.20
2019-05-14T00:46:06.970Z,0.30
2019-05-14T00:48:37.361Z,0.37
2019-05-14T00:51:07.668Z,0.20
2019-05-14T00:53:37.963Z,0.30
2019-05-14T00:56:08.270Z,0.33
2019-05-14T00:58:38.576Z,0.50
2019-05-14T01:01:08.936Z,0.30
2019-05-14T01:03:41.352Z,0.20
2019-05-14T01:06:11.534Z,0.30
2019-05-14T01:08:41.856Z,0.40
2019-05-14T01:11:12.332Z,0.53
2019-05-14T01:13:42.729Z,0.72
2019-05-14T01:16:13.125Z,1.02
2019-05-14T01:18:43.430Z,0.60
2019-05-14T01:21:13.784Z,1.47
2019-05-14T01:23:44.083Z,0.30
2019-05-14T01:26:14.436Z,0.40
2019-05-14T01:28:44.843Z,0.70
2019-05-14T01:31:15.196Z,0.30
2019-05-14T01:33:45.547Z,0.33
2019-05-14T01:36:15.889Z,0.60
2019-05-14T01:38:46.206Z,0.60
2019-05-14T01:41:16.555Z,0.30
2019-05-14T01:43:46.845Z,0.40
2019-05-14T01:46:17.201Z,0.57
2019-05-14T01:48:47.650Z,0.40
2019-05-14T01:51:17.893Z,0.40
2019-05-14T01:53:48.198Z,0.57
2019-05-14T01:56:18.535Z,0.60
2019-05-14T01:58:48.826Z,0.42
2019-05-14T02:01:21.687Z,0.72
2019-05-14T02:03:51.805Z,0.65
2019-05-14T02:06:22.182Z,0.40
2019-05-14T02:08:52.473Z,1.30
2019-05-14T02:11:22.849Z,0.75
2019-05-14T02:13:53.132Z,0.62
2019-05-14T02:16:23.453Z,1.17
2019-05-14T02:18:53.794Z,0.98
2019-05-14T02:21:24.081Z,1.32
2019-05-14T02:23:54.365Z,0.60
2019-05-14T02:26:24.768Z,0.62
2019-05-14T02:28:55.051Z,0.42
2019-05-14T02:31:25.370Z,0.60
2019-05-14T02:33:58.975Z,0.60
2019-05-14T02:36:30.665Z,0.95
2019-05-14T02:39:00.436Z,0.53
2019-05-14T02:41:31.359Z,0.50
2019-05-14T02:44:01.710Z,1.15
2019-05-14T02:46:32.062Z,0.55
2019-05-14T02:49:02.358Z,0.78
2019-05-14T02:51:32.706Z,0.72
2019-05-14T02:54:03.046Z,0.53
2019-05-14T02:56:33.369Z,1.32
2019-05-14T02:59:05.795Z,0.88
2019-05-14T03:01:40.011Z,1.10
2019-05-14T03:04:09.074Z,0.68
2019-05-14T03:06:40.032Z,0.70
2019-05-14T03:09:10.371Z,1.10
2019-05-14T03:11:40.808Z,0.78
2019-05-14T03:14:11.154Z,1.10
2019-05-14T03:16:41.456Z,1.20
2019-05-14T03:19:11.768Z,1.00
2019-05-14T03:21:42.088Z,1.27
2019-05-14T03:24:12.521Z,1.37
2019-05-14T03:26:42.798Z,1.22
2019-05-14T03:29:13.166Z,1.07
2019-05-14T03:31:43.793Z,1.65
2019-05-14T03:34:14.675Z,1.20
2019-05-14T03:36:45.147Z,1.80
2019-05-14T03:39:15.481Z,1.87
2019-05-14T03:41:45.799Z,1.40
2019-05-14T03:44:16.166Z,1.07
2019-05-14T03:46:54.691Z,1.15
2019-05-14T03:49:19.815Z,0.72
2019-05-14T03:51:50.799Z,0.70
2019-05-14T03:54:21.220Z,1.57
2019-05-14T03:56:51.551Z,1.25
2019-05-14T03:59:21.952Z,1.52
2019-05-14T04:01:52.405Z,0.85
2019-05-14T04:04:22.883Z,1.05
2019-05-14T04:06:53.635Z,1.00
2019-05-14T04:09:25.634Z,1.20
2019-05-14T04:11:59.476Z,1.42
2019-05-14T04:14:32.171Z,1.30
2019-05-14T04:17:10.020Z,1.35
2019-05-14T04:19:39.418Z,2.00
2019-05-14T04:22:13.640Z,1.62
2019-05-14T04:24:44.793Z,2.30
2019-05-14T04:27:20.039Z,1.37
2019-05-14T04:29:51.960Z,1.85
2019-05-14T04:32:22.556Z,1.57
2019-05-14T04:34:52.905Z,1.40
2019-05-14T04:37:23.333Z,1.70
2019-05-14T04:39:53.683Z,1.67
2019-05-14T04:42:24.115Z,1.62
2019-05-14T04:44:54.501Z,1.35
2019-05-14T04:47:32.036Z,2.33
2019-05-14T04:49:59.137Z,2.12
2019-05-14T04:52:29.398Z,1.85
2019-05-14T04:54:59.958Z,1.25
2019-05-14T04:57:30.370Z,1.90
2019-05-14T05:00:00.687Z,1.47
2019-05-14T05:02:30.998Z,2.12
2019-05-14T05:05:01.393Z,1.67
2019-05-14T05:07:31.793Z,0.95
2019-05-14T05:10:02.100Z,1.52
2019-05-14T05:12:32.430Z,1.37
2019-05-14T05:15:02.749Z,1.80
2019-05-14T05:17:44.315Z,1.67
2019-05-14T05:20:05.740Z,1.82
2019-05-14T05:22:36.051Z,1.85
2019-05-14T05:25:08.362Z,1.52
2019-05-14T05:27:38.926Z,1.57
2019-05-14T05:30:10.012Z,1.27
2019-05-14T05:32:40.366Z,1.87
2019-05-14T05:35:10.914Z,2.33
2019-05-14T05:37:41.266Z,1.32
2019-05-14T05:40:11.925Z,1.37
2019-05-14T05:42:42.265Z,1.90
2019-05-14T05:45:13.016Z,2.40
2019-05-14T05:47:54.522Z,2.33
2019-05-14T05:50:15.410Z,1.47
2019-05-14T05:52:45.769Z,1.22
2019-05-14T05:55:18.987Z,1.52
2019-05-14T05:57:49.239Z,1.57
2019-05-14T06:00:39.487Z,1.80
2019-05-14T06:03:10.693Z,2.58
2019-05-14T06:05:41.612Z,2.08
2019-05-14T06:08:11.930Z,1.42
2019-05-14T06:10:42.304Z,1.70
2019-05-14T06:13:14.056Z,1.20
2019-05-14T06:15:48.694Z,1.10
2019-05-14T06:18:19.553Z,1.10
2019-05-14T06:20:49.494Z,0.85
2019-05-14T06:23:20.076Z,1.25
2019-05-14T06:25:50.414Z,0.95
2019-05-14T06:28:21.189Z,0.60
2019-05-14T06:30:51.572Z,0.60
2019-05-14T06:33:21.915Z,1.12
2019-05-14T06:35:52.349Z,0.80
2019-05-14T06:38:22.642Z,1.32
2019-05-14T06:40:53.093Z,1.20
2019-05-14T06:43:23.647Z,1.10
2019-05-14T06:45:54.074Z,1.17
2019-05-14T06:48:30.837Z,0.68
2019-05-14T06:50:58.285Z,0.57
2019-05-14T06:53:29.295Z,0.82
2019-05-14T06:55:59.979Z,0.80
2019-05-14T06:58:30.320Z,1.00
2019-05-14T07:01:00.707Z,1.07
2019-05-14T07:03:31.082Z,0.37
2019-05-14T07:06:01.423Z,0.80
2019-05-14T07:08:31.744Z,0.75
2019-05-14T07:11:02.123Z,1.10
2019-05-14T07:13:32.452Z,0.78
2019-05-14T07:16:02.973Z,0.25
2019-05-14T07:18:46.429Z,0.30
2019-05-14T07:21:08.058Z,0.70
2019-05-14T07:23:38.401Z,0.47
2019-05-14T07:26:09.067Z,0.53
2019-05-14T07:28:42.243Z,0.40
2019-05-14T07:31:11.869Z,0.57
2019-05-14T07:33:42.384Z,0.80
2019-05-14T07:36:12.700Z,0.70
2019-05-14T07:38:43.176Z,0.95
2019-05-14T07:41:13.497Z,1.27
2019-05-14T07:43:43.884Z,0.85
2019-05-14T07:46:14.269Z,1.00
2019-05-14T07:48:44.730Z,0.70
2019-05-14T07:51:15.202Z,0.80
2019-05-14T07:53:45.519Z,0.57
2019-05-14T07:56:15.897Z,0.65
2019-05-14T07:58:48.849Z,0.80
2019-05-14T08:01:18.818Z,0.82
2019-05-14T08:03:49.385Z,0.70
2019-05-14T08:06:19.739Z,0.95
2019-05-14T08:08:50.207Z,0.98
2019-05-14T08:11:20.587Z,0.70
2019-05-14T08:13:50.981Z,1.17
2019-05-14T08:16:21.343Z,0.88
2019-05-14T08:18:51.704Z,1.25
2019-05-14T08:21:22.015Z,0.95
2019-05-14T08:23:52.400Z,1.35
2019-05-14T08:26:22.793Z,0.40
2019-05-14T08:28:53.193Z,0.72
2019-05-14T08:31:23.526Z,0.80
2019-05-14T08:33:54.641Z,0.80
2019-05-14T08:36:25.156Z,0.55
2019-05-14T08:38:55.500Z,0.90
2019-05-14T08:41:28.619Z,0.62
2019-05-14T08:43:59.527Z,0.33
2019-05-14T08:46:30.132Z,0.40
2019-05-14T08:49:00.566Z,0.30
2019-05-14T08:51:30.954Z,0.93
2019-05-14T08:54:01.305Z,0.60
2019-05-14T08:56:31.678Z,0.45
2019-05-14T08:59:02.025Z,0.30
2019-05-14T09:01:32.419Z,0.62
2019-05-14T09:04:02.735Z,0.30
2019-05-14T09:06:33.116Z,0.80
2019-05-14T09:09:04.952Z,0.40
2019-05-14T09:11:38.734Z,0.30
2019-05-14T09:14:10.774Z,0.40
2019-05-14T09:16:46.720Z,0.75
2019-05-14T09:19:11.543Z,0.40
2019-05-14T09:21:41.888Z,0.30
2019-05-14T09:24:12.331Z,0.45
2019-05-14T09:26:42.676Z,0.60
2019-05-14T09:29:22.135Z,0.50
2019-05-14T09:31:45.054Z,0.57
2019-05-14T09:34:15.402Z,0.45
2019-05-14T09:36:48.712Z,0.47
2019-05-14T09:39:18.761Z,0.72
2019-05-14T09:41:49.639Z,0.33
2019-05-14T09:44:20.014Z,0.40
2019-05-14T09:46:50.381Z,0.30
2019-05-14T09:49:20.739Z,0.62
2019-05-14T09:51:51.085Z,0.30
2019-05-14T09:54:21.763Z,0.40
2019-05-14T09:56:52.136Z,0.30
2019-05-14T09:59:23.323Z,0.40
2019-05-14T10:01:53.703Z,0.40
2019-05-14T10:04:24.054Z,0.42
2019-05-14T10:06:54.463Z,0.45
2019-05-14T10:09:24.802Z,0.40
2019-05-14T10:11:55.109Z,0.60
2019-05-14T10:14:25.484Z,0.42
2019-05-14T10:16:58.136Z,0.30
2019-05-14T10:19:29.566Z,0.42
2019-05-14T10:21:59.992Z,0.30
2019-05-14T10:24:30.355Z,0.55
2019-05-14T10:27:01.042Z,0.33
2019-05-14T10:29:31.447Z,0.50
2019-05-14T10:32:01.801Z,0.70
2019-05-14T10:34:32.235Z,0.68
2019-05-14T10:37:02.661Z,0.85
2019-05-14T10:39:33.070Z,0.62
2019-05-14T10:42:03.509Z,0.75
2019-05-14T10:44:33.868Z,0.90
2019-05-14T10:47:04.265Z,0.62
2019-05-14T10:49:34.608Z,1.00
2019-05-14T10:52:04.933Z,0.45
2019-05-14T10:54:35.284Z,0.80
2019-05-14T10:57:05.671Z,0.93
2019-05-14T10:59:36.088Z,0.70
2019-05-14T11:02:11.658Z,1.05
2019-05-14T11:04:39.117Z,0.80
2019-05-14T11:07:09.677Z,0.80
2019-05-14T11:09:40.029Z,0.68
2019-05-14T11:12:10.418Z,0.80
2019-05-14T11:14:40.847Z,1.40
2019-05-14T11:17:11.976Z,1.22
2019-05-14T11:19:42.614Z,1.32
2019-05-14T11:22:14.425Z,0.85
2019-05-14T11:24:48.973Z,1.10
2019-05-14T11:27:18.751Z,1.10
2019-05-14T11:29:49.598Z,0.88
2019-05-14T11:32:19.915Z,1.22
2019-05-14T11:34:50.418Z,0.88
2019-05-14T11:37:20.808Z,1.35
2019-05-14T11:39:51.118Z,1.45
2019-05-14T11:42:21.420Z,1.02
2019-05-14T11:44:51.785Z,1.27
2019-05-14T11:47:23.077Z,1.27
2019-05-14T11:49:53.722Z,0.53
2019-05-14T11:52:24.206Z,0.85
2019-05-14T11:54:54.580Z,1.27
2019-05-14T11:57:24.968Z,1.45
2019-05-14T11:59:57.996Z,1.15
2019-05-14T12:02:28.946Z,1.05
2019-05-14T12:04:59.652Z,0.82
2019-05-14T12:07:30.140Z,0.88
2019-05-14T12:10:00.472Z,0.70
2019-05-14T12:12:30.800Z,1.37
2019-05-14T12:15:01.144Z,0.70
2019-05-14T12:17:31.568Z,1.27
2019-05-14T12:20:02.051Z,1.15
2019-05-14T12:22:32.401Z,1.10
2019-05-14T12:25:02.701Z,1.55
2019-05-14T12:27:35.083Z,1.40
2019-05-14T12:30:09.715Z,1.07
2019-05-14T12:32:39.866Z,1.87
2019-05-14T12:35:10.333Z,1.27
2019-05-14T12:37:40.704Z,1.30
2019-05-14T12:40:11.175Z,1.62
2019-05-14T12:42:41.660Z,2.40
2019-05-14T12:45:12.579Z,2.50
2019-05-14T12:47:42.904Z,1.75
2019-05-14T12:50:13.481Z,1.87
2019-05-14T12:52:43.926Z,2.58
2019-05-14T12:55:14.653Z,1.25
2019-05-14T12:57:44.969Z,2.40
2019-05-14T13:00:15.693Z,2.55
2019-05-14T13:02:46.028Z,2.62
2019-05-14T13:05:18.347Z,2.22
2019-05-14T13:07:51.085Z,2.12
2019-05-14T13:10:21.513Z,2.62
2019-05-14T13:12:51.886Z,2.50
2019-05-14T13:15:22.373Z,1.60
2019-05-14T13:17:52.671Z,2.58
2019-05-14T13:20:23.246Z,3.02
2019-05-14T13:22:53.634Z,2.60
2019-05-14T13:25:23.971Z,2.42
2019-05-14T13:27:54.638Z,1.32
2019-05-14T13:30:25.015Z,2.35
2019-05-14T13:32:55.342Z,2.60
2019-05-14T13:35:25.651Z,2.35
2019-05-14T13:37:58.508Z,2.25
2019-05-14T13:40:28.502Z,2.70
2019-05-14T13:42:58.835Z,2.92
2019-05-14T13:45:30.043Z,2.55
2019-05-14T13:48:00.871Z,2.20
2019-05-14T13:50:31.175Z,2.02
2019-05-14T13:53:06.798Z,2.62
2019-05-14T13:55:33.633Z,2.70
2019-05-14T13:58:03.965Z,3.33
2019-05-14T14:00:34.546Z,3.33
2019-05-14T14:03:04.955Z,2.83
2019-05-14T14:05:35.289Z,1.92
2019-05-14T14:08:08.606Z,2.33
2019-05-14T14:10:44.898Z,2.20
2019-05-14T14:13:11.485Z,2.77
2019-05-14T14:15:42.186Z,3.15
2019-05-14T14:18:12.541Z,2.50
2019-05-14T14:20:42.891Z,3.22
2019-05-14T14:23:22.249Z,3.12
2019-05-14T14:25:45.221Z,2.60
2019-05-14T14:28:15.648Z,3.00
2019-05-14T14:30:45.965Z,2.85
2019-05-14T14:33:18.502Z,3.90
2019-05-14T14:35:48.731Z,3.67
2019-05-14T14:38:19.982Z,2.45
2019-05-14T14:40:50.821Z,2.58
2019-05-14T14:43:21.448Z,3.35
2019-05-14T14:45:51.752Z,2.60
2019-05-14T14:48:22.444Z,3.02
2019-05-14T14:50:53.574Z,2.98
2019-05-14T14:53:41.347Z,3.67
2019-05-14T14:56:00.089Z,2.52
2019-05-14T14:58:28.689Z,2.67
2019-05-14T15:00:59.776Z,2.70
2019-05-14T15:03:30.336Z,3.33
2019-05-14T15:06:00.729Z,3.90
2019-05-14T15:08:31.069Z,3.02
2019-05-14T15:11:01.368Z,3.45
2019-05-14T15:13:31.770Z,3.40
2019-05-14T15:16:02.367Z,2.47
2019-05-14T15:18:32.822Z,3.00
2019-05-14T15:21:03.184Z,2.47
2019-05-14T15:23:33.526Z,2.75
2019-05-14T15:26:03.855Z,2.60
2019-05-14T15:28:34.196Z,2.10
2019-05-14T15:31:04.516Z,2.87
2019-05-14T15:33:34.829Z,2.90
2019-05-14T15:36:05.268Z,3.27
2019-05-14T15:38:35.738Z,2.22
2019-05-14T15:41:12.671Z,1.60
2019-05-14T15:43:39.530Z,2.83
2019-05-14T15:46:10.228Z,2.30
2019-05-14T15:48:40.603Z,2.35
2019-05-14T15:51:14.823Z,3.00
2019-05-14T15:54:03.183Z,3.15
2019-05-14T15:56:15.358Z,2.58
2019-05-14T15:58:45.709Z,2.90
2019-05-14T16:01:19.061Z,4.35
2019-05-14T16:03:48.300Z,2.85
2019-05-14T16:06:19.383Z,3.52
2019-05-14T16:08:49.961Z,2.55
2019-05-14T16:11:20.367Z,2.60
2019-05-14T16:13:51.799Z,1.90
2019-05-14T16:16:22.135Z,1.35
2019-05-14T16:18:52.756Z,1.70
2019-05-14T16:21:23.568Z,2.45
2019-05-14T16:23:53.859Z,3.25
2019-05-14T16:26:24.273Z,2.52
2019-05-14T16:28:54.655Z,2.52
2019-05-14T16:31:25.035Z,2.72
2019-05-14T16:33:55.353Z,2.30
2019-05-14T16:36:25.969Z,1.62
2019-05-14T16:38:58.481Z,1.90
2019-05-14T16:41:29.048Z,3.37
2019-05-14T16:43:59.835Z,2.42
2019-05-14T16:46:30.171Z,2.35
2019-05-14T16:49:00.496Z,2.08
2019-05-14T16:51:30.802Z,1.85
2019-05-14T16:54:01.110Z,2.45
2019-05-14T16:56:31.484Z,2.08
2019-05-14T16:59:02.019Z,2.05
2019-05-14T17:01:33.678Z,3.08
2019-05-14T17:04:06.507Z,2.15
2019-05-14T17:06:40.111Z,1.65
2019-05-14T17:09:11.809Z,1.32
2019-05-14T17:11:42.621Z,1.50
2019-05-14T17:14:13.359Z,1.47
2019-05-14T17:16:43.956Z,1.87
2019-05-14T17:19:14.873Z,1.47
2019-05-14T17:21:48.529Z,1.85
2019-05-14T17:24:20.030Z,1.12
2019-05-14T17:26:50.976Z,1.90
2019-05-14T17:29:21.297Z,1.87
2019-05-14T17:31:51.641Z,1.35
2019-05-14T17:34:21.983Z,1.45
2019-05-14T17:36:52.377Z,1.07
2019-05-14T17:39:22.847Z,1.20
2019-05-14T17:41:53.180Z,1.95
2019-05-14T17:44:23.630Z,1.42
2019-05-14T17:46:53.967Z,2.22
2019-05-14T17:49:24.269Z,2.10
2019-05-14T17:51:54.675Z,1.85
2019-05-14T17:54:25.154Z,1.98
2019-05-14T17:56:55.526Z,2.45
2019-05-14T17:59:25.907Z,2.25
2019-05-14T18:01:58.166Z,1.62
2019-05-14T18:04:28.549Z,1.20
2019-05-14T18:06:59.321Z,1.50
2019-05-14T18:09:29.815Z,1.67
2019-05-14T18:12:00.460Z,1.80
2019-05-14T18:14:30.794Z,1.80
2019-05-14T18:17:01.449Z,2.25
2019-05-14T18:19:33.119Z,2.65
2019-05-14T18:22:03.428Z,2.42
2019-05-14T18:24:33.810Z,2.08
2019-05-14T18:27:04.186Z,2.22
2019-05-14T18:29:34.572Z,2.22
2019-05-14T18:32:04.888Z,2.17
2019-05-14T18:34:35.195Z,1.87
2019-05-14T18:37:05.577Z,2.20
2019-05-14T18:39:35.958Z,1.72
2019-05-14T18:42:08.583Z,2.22
2019-05-14T18:44:39.099Z,2.20
2019-05-14T18:47:09.831Z,1.60
2019-05-14T18:49:40.152Z,1.85
2019-05-14T18:52:10.489Z,2.00
2019-05-14T18:54:40.879Z,1.40
2019-05-14T18:57:12.147Z,1.57
2019-05-14T18:59:42.616Z,1.80
2019-05-14T19:02:12.994Z,1.80
2019-05-14T19:04:43.323Z,1.30
2019-05-14T19:07:15.558Z,1.20
2019-05-14T19:09:45.731Z,1.55
2019-05-14T19:12:16.073Z,2.35
2019-05-14T19:14:49.022Z,1.55
2019-05-14T19:17:18.787Z,2.02
2019-05-14T19:19:49.182Z,2.83
2019-05-14T19:22:19.543Z,2.85
2019-05-14T19:24:49.841Z,3.47
2019-05-14T19:27:20.174Z,2.02
2019-05-14T19:29:50.724Z,2.42
2019-05-14T19:32:21.214Z,2.87
2019-05-14T19:34:51.507Z,2.37
2019-05-14T19:37:21.859Z,2.95
2019-05-14T19:39:52.170Z,2.35
2019-05-14T19:42:22.552Z,2.77
2019-05-14T19:44:52.951Z,2.65
2019-05-14T19:47:23.326Z,1.92
2019-05-14T19:49:53.634Z,2.87
2019-05-14T19:52:23.965Z,3.45
2019-05-14T19:54:54.329Z,3.22
2019-05-14T19:57:24.672Z,3.37
2019-05-14T19:59:55.076Z,3.02
2019-05-14T20:02:25.374Z,3.05
2019-05-14T20:04:55.724Z,4.12
2019-05-14T20:07:27.986Z,2.80
2019-05-14T20:09:58.762Z,3.35
2019-05-14T20:12:29.242Z,3.45
2019-05-14T20:14:59.609Z,3.62
2019-05-14T20:17:29.958Z,3.80
2019-05-14T20:20:00.321Z,3.37
2019-05-14T20:22:30.705Z,2.67
2019-05-14T20:25:01.087Z,2.60
2019-05-14T20:27:31.893Z,3.10
2019-05-14T20:30:02.273Z,3.85
2019-05-14T20:32:32.599Z,3.75
2019-05-14T20:35:02.897Z,3.52
2019-05-14T20:37:33.382Z,2.62
2019-05-14T20:40:03.724Z,3.27
2019-05-14T20:42:34.076Z,2.85
2019-05-14T20:45:04.667Z,4.05
2019-05-14T20:47:34.970Z,3.52
2019-05-14T20:50:08.891Z,3.37
2019-05-14T20:52:39.154Z,4.08
2019-05-14T20:55:09.771Z,3.87
2019-05-14T20:57:40.121Z,4.05
2019-05-14T21:00:11.771Z,3.70
2019-05-14T21:02:42.682Z,4.35
2019-05-14T21:05:13.997Z,3.92
2019-05-14T21:07:44.630Z,4.58
2019-05-14T21:10:16.090Z,4.40
2019-05-14T21:12:48.676Z,3.55
2019-05-14T21:15:18.522Z,4.58
2019-05-14T21:17:50.455Z,4.58
2019-05-14T21:20:21.005Z,4.37
2019-05-14T21:22:51.397Z,3.95
2019-05-14T21:25:21.774Z,4.75
2019-05-14T21:27:52.353Z,4.42
2019-05-14T21:30:22.857Z,4.28
2019-05-14T21:32:53.226Z,3.95
2019-05-14T21:35:23.558Z,4.30
2019-05-14T21:37:53.928Z,3.33
2019-05-14T21:40:24.264Z,3.35
2019-05-14T21:42:54.593Z,4.12
2019-05-14T21:45:24.954Z,3.47
2019-05-14T21:47:55.332Z,3.35
2019-05-14T21:50:25.663Z,3.72
2019-05-14T21:52:56.019Z,3.30
2019-05-14T21:55:28.731Z,3.02
2019-05-14T21:57:58.394Z,3.62
2019-05-14T22:00:41.963Z,3.27
2019-05-14T22:03:11.236Z,4.28
2019-05-14T22:05:41.580Z,2.77
2019-05-14T22:08:12.019Z,3.30
2019-05-14T22:10:42.370Z,4.10
2019-05-14T22:13:12.698Z,3.60
2019-05-14T22:15:43.148Z,3.50
2019-05-14T22:18:17.695Z,3.80
2019-05-14T22:20:45.634Z,3.12
2019-05-14T22:23:17.861Z,2.67
2019-05-14T22:25:48.701Z,3.17
2019-05-14T22:28:19.152Z,3.35
2019-05-14T22:30:49.536Z,2.83
2019-05-14T22:33:19.892Z,2.72
2019-05-14T22:35:50.219Z,2.60
2019-05-14T22:38:20.620Z,2.83
2019-05-14T22:40:51.016Z,2.27
2019-05-14T22:43:21.397Z,2.87
2019-05-14T22:45:51.804Z,2.65
2019-05-14T22:48:22.171Z,3.98
2019-05-14T22:50:52.523Z,3.27
2019-05-14T22:53:22.942Z,3.90
2019-05-14T22:55:53.274Z,3.15
2019-05-14T22:58:28.709Z,3.45
2019-05-14T23:01:06.958Z,3.15
2019-05-14T23:03:28.958Z,3.75
2019-05-14T23:05:59.697Z,2.67
2019-05-14T23:08:30.100Z,3.83
2019-05-14T23:11:00.425Z,3.67
2019-05-14T23:13:30.763Z,3.70
2019-05-14T23:16:01.106Z,4.28
2019-05-14T23:18:31.439Z,4.00
2019-05-14T23:21:01.762Z,3.47
2019-05-14T23:23:32.182Z,3.45
2019-05-14T23:26:02.717Z,3.83
2019-05-14T23:28:44.486Z,4.10
2019-05-14T23:31:05.181Z,4.12
2019-05-14T23:33:35.686Z,4.72
2019-05-14T23:36:08.330Z,4.55
2019-05-14T23:38:38.614Z,4.42
2019-05-14T23:41:09.504Z,4.58
2019-05-14T23:43:39.825Z,4.58
2019-05-14T23:46:10.232Z,4.85
2019-05-14T23:48:40.599Z,4.22
2019-05-14T23:51:10.953Z,5.00
2019-05-14T23:53:41.363Z,3.95
2019-05-14T23:56:11.694Z,4.78
2019-05-14T23:58:54.333Z,4.55
